createdAt,value
2019-05-06T00:01:34.031Z,16.15
2019-05-06T00:04:04.843Z,14.20
2019-05-06T00:06:34.590Z,17.15
2019-05-06T00:09:04.934Z,18.75
2019-05-06T00:11:34.669Z,16.57
2019-05-06T00:14:03.988Z,15.20
2019-05-06T00:16:34.648Z,17.20
2019-05-06T00:19:04.876Z,19.17
2019-05-06T00:21:35.601Z,14.50
2019-05-06T00:24:04.129Z,14.55
2019-05-06T00:26:55.129Z,16.25
2019-05-06T00:29:27.065Z,17.70
2019-05-06T00:31:55.907Z,16.02
2019-05-06T00:34:24.648Z,16.65
2019-05-06T00:36:54.463Z,17.73
2019-05-06T00:39:24.874Z,16.07
2019-05-06T00:42:01.207Z,18.27
2019-05-06T00:44:30.000Z,16.95
2019-05-06T00:46:58.457Z,15.30
2019-05-06T00:49:28.504Z,15.38
2019-05-06T00:51:57.299Z,15.23
2019-05-06T00:54:27.407Z,17.35
2019-05-06T00:56:56.218Z,15.68
2019-05-06T00:59:24.691Z,17.82
2019-05-06T01:01:53.868Z,18.90
2019-05-06T01:04:24.492Z,16.62
2019-05-06T01:06:54.482Z,15.83
2019-05-06T01:09:23.788Z,12.68
2019-05-06T01:11:54.355Z,16.60
2019-05-06T01:14:24.471Z,16.93
2019-05-06T01:16:54.777Z,18.80
2019-05-06T01:19:24.999Z,16.87
2019-05-06T01:21:53.990Z,17.50
2019-05-06T01:24:43.930Z,18.45
2019-05-06T01:27:14.531Z,17.85
2019-05-06T01:29:44.146Z,18.50
2019-05-06T01:32:13.944Z,17.42
2019-05-06T01:34:44.662Z,15.88
2019-05-06T01:37:14.246Z,21.17
2019-05-06T01:39:54.222Z,17.37
2019-05-06T01:42:42.155Z,14.33
2019-05-06T01:45:11.230Z,22.77
2019-05-06T01:47:40.019Z,15.23
2019-05-06T01:50:08.923Z,16.15
2019-05-06T01:52:37.374Z,13.03
2019-05-06T01:55:07.727Z,14.73
2019-05-06T01:57:36.519Z,17.55
2019-05-06T02:00:07.191Z,13.25
2019-05-06T02:02:35.943Z,15.00
2019-05-06T02:05:05.548Z,13.00
2019-05-06T02:07:34.944Z,17.23
2019-05-06T02:10:05.706Z,16.67
2019-05-06T02:12:34.605Z,16.62
2019-05-06T02:15:04.237Z,18.05
2019-05-06T02:17:34.521Z,13.58
2019-05-06T02:20:04.223Z,16.65
2019-05-06T02:22:34.657Z,13.95
2019-05-06T02:25:05.311Z,14.65
2019-05-06T02:27:34.191Z,15.35
2019-05-06T02:30:07.412Z,13.58
2019-05-06T02:32:40.601Z,13.95
2019-05-06T02:35:17.167Z,15.32
2019-05-06T02:37:46.720Z,17.62
2019-05-06T02:40:24.214Z,18.30
2019-05-06T02:42:54.679Z,14.93
2019-05-06T02:45:23.883Z,17.90
2019-05-06T02:47:56.673Z,16.35
2019-05-06T02:50:27.112Z,18.10
2019-05-06T02:52:55.579Z,17.50
2019-05-06T02:55:24.394Z,17.73
2019-05-06T02:57:53.817Z,21.93
2019-05-06T03:00:23.811Z,15.18
2019-05-06T03:02:54.129Z,17.77
2019-05-06T03:05:23.734Z,16.17
2019-05-06T03:07:57.206Z,13.85
2019-05-06T03:10:24.643Z,13.95
2019-05-06T03:12:53.933Z,15.45
2019-05-06T03:15:24.008Z,18.85
2019-05-06T03:17:55.285Z,16.42
2019-05-06T03:20:37.068Z,16.70
2019-05-06T03:23:07.526Z,13.62
2019-05-06T03:25:36.919Z,13.78
2019-05-06T03:28:05.722Z,14.73
2019-05-06T03:30:36.169Z,13.18
2019-05-06T03:35:50.472Z,19.80
2019-05-06T03:38:06.362Z,14.05
2019-05-06T03:40:37.111Z,16.12
2019-05-06T03:43:05.343Z,16.85
2019-05-06T03:45:38.529Z,14.73
2019-05-06T03:48:08.899Z,18.15
2019-05-06T03:50:37.646Z,16.02
2019-05-06T03:53:08.295Z,19.25
2019-05-06T03:55:38.841Z,25.80
2019-05-06T03:58:09.323Z,17.87
2019-05-06T04:00:38.643Z,19.32
2019-05-06T04:03:07.444Z,19.12
2019-05-06T04:05:36.435Z,19.23
2019-05-06T04:08:04.990Z,16.95
2019-05-06T04:10:36.872Z,16.57
2019-05-06T04:13:05.488Z,20.75
2019-05-06T04:15:36.323Z,23.00
2019-05-06T04:18:06.506Z,21.70
2019-05-06T04:20:37.584Z,19.87
2019-05-06T04:23:08.025Z,17.10
2019-05-06T04:25:54.763Z,17.70
2019-05-06T04:28:39.367Z,17.48
2019-05-06T04:31:08.170Z,18.07
2019-05-06T04:33:36.711Z,16.55
2019-05-06T04:36:05.557Z,22.30
2019-05-06T04:38:34.175Z,22.95
2019-05-06T04:41:03.252Z,21.23
2019-05-06T04:43:33.589Z,18.73
2019-05-06T04:46:03.221Z,18.52
2019-05-06T04:48:32.881Z,15.70
2019-05-06T04:51:03.282Z,26.65
2019-05-06T04:53:33.769Z,20.90
2019-05-06T04:56:03.870Z,24.65
2019-05-06T04:58:33.564Z,16.05
2019-05-06T05:01:04.150Z,18.23
2019-05-06T05:03:33.873Z,15.78
2019-05-06T05:06:05.767Z,19.60
2019-05-06T05:08:36.375Z,17.35
2019-05-06T05:11:08.187Z,14.98
2019-05-06T05:13:54.503Z,14.90
2019-05-06T05:16:24.918Z,20.95
2019-05-06T05:18:55.651Z,15.15
2019-05-06T05:21:24.123Z,15.10
2019-05-06T05:23:53.136Z,18.20
2019-05-06T05:26:22.511Z,15.88
2019-05-06T05:28:53.209Z,16.73
2019-05-06T05:31:23.031Z,14.65
2019-05-06T05:33:52.649Z,20.57
2019-05-06T05:36:23.138Z,18.98
2019-05-06T05:38:52.211Z,24.82
2019-05-06T05:41:23.208Z,26.97
2019-05-06T05:43:59.450Z,22.37
2019-05-06T05:46:28.235Z,17.37
2019-05-06T05:49:12.042Z,15.10
2019-05-06T05:51:42.587Z,18.60
2019-05-06T05:54:12.450Z,21.75
2019-05-06T05:56:43.086Z,18.15
2019-05-06T05:59:12.269Z,15.20
2019-05-06T06:01:43.457Z,13.32
2019-05-06T06:04:13.013Z,18.50
2019-05-06T06:06:42.397Z,16.67
2019-05-06T06:09:12.705Z,18.65
2019-05-06T06:11:44.363Z,17.67
2019-05-06T06:14:33.034Z,15.55
2019-05-06T06:17:19.478Z,17.73
2019-05-06T06:19:55.487Z,21.15
2019-05-06T06:22:26.344Z,24.05
2019-05-06T06:24:54.867Z,16.50
2019-05-06T06:27:23.736Z,19.32
2019-05-06T06:29:52.751Z,19.35
2019-05-06T06:32:23.973Z,17.98
2019-05-06T06:35:13.298Z,19.70
2019-05-06T06:37:43.963Z,19.67
2019-05-06T06:40:14.587Z,16.32
2019-05-06T06:42:43.067Z,17.02
2019-05-06T06:45:12.370Z,18.27
2019-05-06T06:47:42.510Z,17.75
2019-05-06T06:50:12.603Z,18.30
2019-05-06T06:52:42.160Z,18.35
2019-05-06T06:55:12.978Z,21.15
2019-05-06T06:57:51.951Z,19.20
2019-05-06T07:00:22.549Z,18.87
2019-05-06T07:02:53.087Z,17.87
2019-05-06T07:05:29.856Z,19.65
2019-05-06T07:07:59.491Z,14.23
2019-05-06T07:10:43.245Z,19.30
2019-05-06T07:13:14.895Z,13.10
2019-05-06T07:15:44.064Z,17.85
2019-05-06T07:18:13.971Z,13.75
2019-05-06T07:20:44.066Z,13.93
2019-05-06T07:23:29.575Z,14.70
2019-05-06T07:25:58.031Z,14.95
2019-05-06T07:28:27.607Z,21.48
2019-05-06T07:30:56.775Z,19.55
2019-05-06T07:33:25.242Z,19.07
2019-05-06T07:35:54.051Z,19.40
2019-05-06T07:38:23.401Z,24.82
2019-05-06T07:40:54.198Z,23.38
2019-05-06T07:43:34.025Z,17.15
2019-05-06T07:46:12.161Z,20.37
2019-05-06T07:48:42.832Z,18.45
2019-05-06T07:51:12.414Z,22.00
2019-05-06T07:53:42.675Z,18.57
2019-05-06T07:56:12.603Z,15.40
2019-05-06T07:58:43.573Z,18.87
2019-05-06T08:01:13.527Z,16.10
2019-05-06T08:03:42.864Z,22.62
2019-05-06T08:06:13.179Z,15.53
2019-05-06T08:08:43.553Z,14.63
2019-05-06T08:11:12.572Z,20.55
2019-05-06T08:13:43.455Z,16.90
2019-05-06T08:16:13.106Z,19.80
2019-05-06T08:18:42.556Z,20.05
2019-05-06T08:21:18.805Z,18.10
2019-05-06T08:23:48.891Z,17.82
2019-05-06T08:26:18.062Z,14.78
2019-05-06T08:28:52.373Z,14.80
2019-05-06T08:31:22.516Z,19.75
2019-05-06T08:33:52.459Z,19.55
2019-05-06T08:36:23.299Z,16.12
2019-05-06T08:38:56.895Z,12.95
2019-05-06T08:41:26.575Z,11.85
2019-05-06T08:43:55.928Z,14.03
2019-05-06T08:46:24.535Z,11.40
2019-05-06T08:48:53.583Z,10.93
2019-05-06T08:51:42.419Z,11.28
2019-05-06T08:54:27.136Z,10.10
2019-05-06T08:56:56.007Z,10.40
2019-05-06T08:59:24.454Z,12.07
2019-05-06T09:01:54.632Z,12.75
2019-05-06T09:04:23.428Z,14.38
2019-05-06T09:06:53.364Z,14.05
2019-05-06T09:09:22.518Z,9.43
2019-05-06T09:11:53.353Z,15.85
2019-05-06T09:14:23.153Z,11.45
2019-05-06T09:16:53.983Z,8.80
2019-05-06T09:19:23.346Z,10.28
2019-05-06T09:21:53.347Z,14.25
2019-05-06T09:24:23.185Z,16.60
2019-05-06T09:26:56.155Z,14.07
2019-05-06T09:29:35.728Z,14.10
2019-05-06T09:32:06.233Z,12.80
2019-05-06T09:34:39.731Z,20.75
2019-05-06T09:37:14.131Z,15.50
2019-05-06T09:42:13.559Z,14.75
2019-05-06T09:44:43.659Z,11.93
2019-05-06T09:47:33.069Z,11.97
2019-05-06T09:50:02.762Z,12.82
2019-05-06T09:52:33.294Z,13.98
2019-05-06T09:55:03.643Z,13.83
2019-05-06T09:57:35.159Z,15.00
2019-05-06T10:00:05.428Z,13.55
2019-05-06T10:02:34.039Z,15.75
2019-05-06T10:05:03.598Z,17.77
2019-05-06T10:07:33.910Z,16.02
2019-05-06T10:10:02.527Z,9.73
2019-05-06T10:12:32.894Z,14.13
2019-05-06T10:15:03.212Z,11.22
2019-05-06T10:17:31.355Z,17.10
2019-05-06T10:20:02.587Z,10.43
2019-05-06T10:22:32.283Z,19.23
2019-05-06T10:25:03.359Z,12.20
2019-05-06T10:27:30.387Z,11.03
2019-05-06T10:30:06.567Z,16.32
2019-05-06T10:32:39.404Z,15.63
2019-05-06T10:35:09.632Z,15.00
2019-05-06T10:37:47.503Z,12.95
2019-05-06T10:40:32.778Z,8.75
2019-05-06T10:43:06.883Z,9.53
2019-05-06T10:45:35.684Z,13.93
2019-05-06T10:48:04.475Z,8.53
2019-05-06T10:50:34.999Z,12.47
2019-05-06T10:53:14.255Z,7.20
2019-05-06T10:55:46.095Z,13.18
2019-05-06T10:58:14.993Z,9.43
2019-05-06T11:00:43.459Z,5.40
2019-05-06T11:03:16.569Z,9.08
2019-05-06T11:05:46.336Z,8.40
2019-05-06T11:08:15.072Z,7.20
2019-05-06T11:10:45.290Z,9.53
2019-05-06T11:13:14.939Z,6.60
2019-05-06T11:15:43.656Z,12.50
2019-05-06T11:18:13.481Z,8.05
2019-05-06T11:21:03.480Z,11.20
2019-05-06T11:23:33.733Z,8.95
2019-05-06T11:26:03.147Z,8.70
2019-05-06T11:28:45.424Z,10.30
2019-05-06T11:31:16.767Z,9.95
2019-05-06T11:33:56.031Z,6.90
2019-05-06T11:36:28.903Z,4.78
2019-05-06T11:38:57.361Z,8.48
2019-05-06T11:41:27.200Z,7.92
2019-05-06T11:43:55.655Z,9.83
2019-05-06T11:46:24.472Z,14.03
2019-05-06T11:48:53.271Z,7.78
2019-05-06T11:51:23.708Z,7.65
2019-05-06T11:53:54.157Z,10.70
2019-05-06T11:56:23.230Z,7.53
2019-05-06T11:58:53.764Z,9.75
2019-05-06T12:01:26.856Z,8.83
2019-05-06T12:03:55.302Z,8.80
2019-05-06T12:06:24.136Z,8.10
2019-05-06T12:08:52.932Z,4.67
2019-05-06T12:11:23.651Z,7.92
2019-05-06T12:13:53.217Z,8.85
2019-05-06T12:16:26.027Z,10.98
2019-05-06T12:18:52.977Z,9.93
2019-05-06T12:21:23.183Z,10.53
2019-05-06T12:23:53.857Z,10.20
2019-05-06T12:26:22.453Z,8.68
2019-05-06T12:28:53.148Z,7.22
2019-05-06T12:31:23.392Z,7.22
2019-05-06T12:33:53.308Z,8.80
2019-05-06T12:36:22.595Z,9.55
2019-05-06T12:39:09.611Z,10.70
2019-05-06T12:41:43.080Z,6.92
2019-05-06T12:44:13.097Z,12.60
2019-05-06T12:47:00.144Z,10.45
2019-05-06T12:49:28.798Z,8.98
2019-05-06T12:51:58.559Z,7.15
2019-05-06T12:54:27.379Z,7.70
2019-05-06T12:56:57.115Z,8.60
2019-05-06T12:59:25.575Z,11.33
2019-05-06T13:01:54.477Z,8.30
2019-05-06T13:04:44.424Z,10.38
2019-05-06T13:06:53.568Z,7.33
2019-05-06T13:09:22.612Z,11.80
2019-05-06T13:11:52.400Z,8.28
2019-05-06T13:14:22.461Z,11.08
2019-05-06T13:16:53.235Z,4.65
2019-05-06T13:19:22.840Z,8.65
2019-05-06T13:21:52.860Z,10.48
2019-05-06T13:24:22.810Z,8.65
2019-05-06T13:26:52.806Z,7.45
2019-05-06T13:29:26.831Z,10.43
2019-05-06T13:31:56.833Z,10.53
2019-05-06T13:34:25.738Z,10.48
2019-05-06T13:36:54.388Z,11.97
2019-05-06T13:39:23.852Z,8.95
2019-05-06T13:41:52.918Z,10.13
2019-05-06T13:44:22.739Z,6.70
2019-05-06T13:46:53.525Z,11.60
2019-05-06T13:49:26.807Z,7.17
2019-05-06T13:52:00.843Z,7.33
2019-05-06T13:54:27.527Z,7.72
2019-05-06T13:56:56.076Z,10.75
2019-05-06T13:59:27.633Z,9.23
2019-05-06T14:01:56.662Z,11.78
2019-05-06T14:04:25.138Z,6.30
2019-05-06T14:06:53.668Z,10.32
2019-05-06T14:09:31.355Z,8.50
2019-05-06T14:11:52.655Z,10.82
2019-05-06T14:14:22.648Z,9.65
2019-05-06T14:16:53.336Z,7.00
2019-05-06T14:19:22.510Z,6.40
2019-05-06T14:21:52.328Z,9.03
2019-05-06T14:24:22.863Z,7.67
2019-05-06T14:27:02.643Z,8.80
2019-05-06T14:29:38.935Z,8.70
2019-05-06T14:32:07.812Z,9.18
2019-05-06T14:34:36.600Z,9.80
2019-05-06T14:37:05.124Z,9.65
2019-05-06T14:39:50.073Z,16.02
2019-05-06T14:42:12.729Z,11.35
2019-05-06T14:44:43.075Z,10.55
2019-05-06T14:47:19.248Z,6.97
2019-05-06T14:49:48.088Z,8.43
2019-05-06T14:52:16.548Z,13.20
2019-05-06T14:54:49.669Z,11.10
2019-05-06T14:57:19.684Z,8.63
2019-05-06T14:59:51.083Z,6.90
2019-05-06T15:02:25.439Z,11.80
2019-05-06T15:04:53.338Z,8.78
2019-05-06T15:07:22.192Z,9.20
2019-05-06T15:10:07.998Z,6.95
2019-05-06T15:12:22.862Z,4.50
2019-05-06T15:14:52.655Z,7.72
2019-05-06T15:17:23.126Z,10.10
2019-05-06T15:19:52.501Z,11.03
2019-05-06T15:22:22.628Z,8.18
2019-05-06T15:24:53.587Z,12.60
2019-05-06T15:27:23.381Z,8.03
2019-05-06T15:29:55.192Z,11.22
2019-05-06T15:32:32.083Z,7.78
2019-05-06T15:35:02.785Z,7.22
2019-05-06T15:37:35.724Z,8.95
2019-05-06T15:40:07.012Z,3.33
2019-05-06T15:42:35.463Z,10.50
2019-05-06T15:45:06.139Z,8.75
2019-05-06T15:47:34.940Z,9.13
2019-05-06T15:50:03.936Z,6.53
2019-05-06T15:52:32.856Z,9.53
2019-05-06T15:55:03.239Z,5.97
2019-05-06T15:57:32.797Z,7.58
2019-05-06T16:00:02.616Z,11.70
2019-05-06T16:02:31.280Z,15.75
2019-05-06T16:05:00.072Z,4.40
2019-05-06T16:07:31.839Z,11.33
2019-05-06T16:09:59.064Z,4.97
2019-05-06T16:12:27.895Z,5.92
2019-05-06T16:14:56.430Z,12.05
2019-05-06T16:17:24.888Z,9.20
2019-05-06T16:19:53.431Z,7.70
2019-05-06T16:22:22.548Z,11.40
2019-05-06T16:24:58.513Z,7.47
2019-05-06T16:27:27.287Z,11.18
2019-05-06T16:29:56.076Z,6.03
2019-05-06T16:32:24.875Z,18.10
2019-05-06T16:34:53.672Z,8.10
2019-05-06T16:37:22.451Z,8.18
2019-05-06T16:39:52.452Z,8.18
2019-05-06T16:42:22.447Z,9.43
2019-05-06T16:44:52.699Z,6.80
2019-05-06T16:47:37.793Z,10.75
2019-05-06T16:50:08.971Z,15.15
2019-05-06T16:52:37.488Z,7.22
2019-05-06T16:55:09.129Z,9.05
2019-05-06T16:57:37.647Z,9.73
2019-05-06T17:00:08.029Z,10.60
2019-05-06T17:02:41.968Z,10.23
2019-05-06T17:05:17.151Z,10.93
2019-05-06T17:07:46.779Z,10.27
2019-05-06T17:10:15.479Z,6.75
2019-05-06T17:12:44.251Z,13.00
2019-05-06T17:15:14.467Z,9.28
2019-05-06T17:17:46.665Z,7.70
2019-05-06T17:20:13.587Z,11.80
2019-05-06T17:22:42.439Z,8.78
2019-05-06T17:25:11.072Z,8.90
2019-05-06T17:27:40.602Z,4.85
2019-05-06T17:30:16.568Z,8.63
2019-05-06T17:32:47.063Z,9.78
2019-05-06T17:35:16.991Z,7.72
2019-05-06T17:37:47.162Z,8.53
2019-05-06T17:40:19.179Z,9.33
2019-05-06T17:42:49.136Z,10.03
2019-05-06T17:45:36.591Z,9.53
2019-05-06T17:48:12.834Z,12.05
2019-05-06T17:50:42.110Z,9.13
2019-05-06T17:53:12.296Z,11.05
2019-05-06T17:55:43.292Z,7.80
2019-05-06T17:58:12.984Z,10.60
2019-05-06T18:00:42.901Z,7.95
2019-05-06T18:03:11.879Z,8.60
2019-05-06T18:05:42.191Z,7.62
2019-05-06T18:08:12.629Z,7.85
2019-05-06T18:10:42.683Z,7.80
2019-05-06T18:13:12.635Z,7.05
2019-05-06T18:15:43.079Z,6.10
2019-05-06T18:18:13.055Z,8.23
2019-05-06T18:20:42.682Z,6.90
2019-05-06T18:23:12.882Z,9.93
2019-05-06T18:25:43.236Z,9.55
2019-05-06T18:28:12.333Z,12.03
2019-05-06T18:30:41.391Z,9.93
2019-05-06T18:33:09.864Z,11.00
2019-05-06T18:35:38.674Z,8.75
2019-05-06T18:38:07.463Z,10.05
2019-05-06T18:40:35.916Z,10.50
2019-05-06T18:43:04.844Z,10.63
2019-05-06T18:45:34.864Z,12.93
2019-05-06T18:48:03.670Z,16.12
2019-05-06T18:50:32.196Z,14.87
2019-05-06T18:53:02.415Z,9.60
2019-05-06T18:55:33.041Z,9.03
2019-05-06T18:58:02.295Z,11.70
2019-05-06T19:00:32.015Z,12.98
2019-05-06T19:03:02.678Z,8.80
2019-05-06T19:05:34.522Z,15.48
2019-05-06T19:08:05.073Z,11.35
2019-05-06T19:10:34.067Z,12.60
2019-05-06T19:13:02.603Z,10.63
2019-05-06T19:15:32.940Z,10.50
2019-05-06T19:18:02.283Z,8.53
2019-05-06T19:20:33.883Z,9.90
2019-05-06T19:23:02.320Z,10.90
2019-05-06T19:25:33.971Z,12.40
2019-05-06T19:28:02.239Z,11.45
2019-05-06T19:30:32.043Z,11.12
2019-05-06T19:33:02.929Z,15.18
2019-05-06T19:35:36.838Z,12.85
2019-05-06T19:38:05.268Z,13.50
2019-05-06T19:40:33.291Z,16.40
2019-05-06T19:43:03.021Z,14.87
2019-05-06T19:45:34.406Z,30.00
2019-05-06T19:48:02.913Z,11.73
2019-05-06T19:50:32.989Z,12.33
2019-05-06T19:53:02.053Z,12.95
2019-05-06T19:55:30.527Z,11.73
2019-05-06T19:57:59.051Z,12.43
2019-05-06T20:00:27.783Z,11.75
2019-05-06T20:02:56.500Z,12.95
2019-05-06T20:05:26.867Z,12.10
2019-05-06T20:07:59.719Z,14.87
2019-05-06T20:10:32.831Z,11.22
2019-05-06T20:13:05.409Z,11.33
2019-05-06T20:15:35.831Z,12.40
2019-05-06T20:18:06.449Z,12.95
2019-05-06T20:20:35.655Z,13.62
2019-05-06T20:23:04.651Z,13.25
2019-05-06T20:25:36.479Z,15.35
2019-05-06T20:28:04.278Z,16.67
2019-05-06T20:30:32.776Z,13.32
2019-05-06T20:33:01.571Z,15.32
2019-05-06T20:35:32.199Z,15.88
2019-05-06T20:38:02.756Z,14.75
2019-05-06T20:40:32.698Z,16.27
2019-05-06T20:43:15.746Z,12.07
2019-05-06T20:45:35.676Z,17.57
2019-05-06T20:48:04.422Z,15.60
2019-05-06T20:50:33.239Z,12.85
2019-05-06T20:53:01.692Z,15.55
2019-05-06T20:55:33.262Z,16.05
2019-05-06T20:58:02.690Z,14.10
2019-05-06T21:00:33.284Z,15.08
2019-05-06T21:03:01.106Z,17.02
2019-05-06T21:05:29.583Z,16.52
2019-05-06T21:07:58.113Z,15.30
2019-05-06T21:10:26.659Z,17.70
2019-05-06T21:12:55.103Z,17.82
2019-05-06T21:15:23.835Z,19.42
2019-05-06T21:17:52.550Z,18.37
2019-05-06T21:20:21.159Z,17.07
2019-05-06T21:22:49.875Z,16.95
2019-05-06T21:25:18.697Z,19.40
2019-05-06T21:27:47.223Z,20.60
2019-05-06T21:30:16.134Z,20.92
2019-05-06T21:32:44.873Z,19.98
2019-05-06T21:35:13.883Z,18.52
2019-05-06T21:37:42.768Z,18.57
2019-05-06T21:40:12.376Z,17.57
2019-05-06T21:42:43.175Z,17.07
2019-05-06T21:45:12.554Z,16.77
2019-05-06T21:47:44.399Z,18.40
2019-05-06T21:50:12.138Z,18.50
2019-05-06T21:52:42.840Z,19.75
2019-05-06T21:55:13.105Z,19.15
2019-05-06T21:57:42.417Z,21.65
2019-05-06T22:00:16.818Z,19.00
2019-05-06T22:02:43.561Z,25.20
2019-05-06T22:05:13.775Z,19.17
2019-05-06T22:07:43.416Z,16.85
2019-05-06T22:10:12.470Z,18.37
2019-05-06T22:12:43.163Z,21.25
2019-05-06T22:15:11.884Z,20.15
2019-05-06T22:17:42.843Z,22.55
2019-05-06T22:20:11.519Z,20.65
2019-05-06T22:22:42.602Z,22.90
2019-05-06T22:25:12.950Z,20.45
2019-05-06T22:27:44.256Z,18.05
2019-05-06T22:30:12.284Z,26.65
2019-05-06T22:32:46.815Z,19.75
2019-05-06T22:35:17.931Z,19.45
2019-05-06T22:37:46.404Z,25.23
2019-05-06T22:40:15.498Z,23.42
2019-05-06T22:42:44.228Z,20.72
2019-05-06T22:45:13.535Z,21.68
2019-05-06T22:47:42.324Z,20.32
2019-05-06T22:50:13.089Z,24.87
2019-05-06T22:52:42.156Z,22.85
2019-05-06T22:55:12.967Z,25.43
2019-05-06T22:57:42.367Z,24.40
2019-05-06T23:00:15.204Z,24.55
2019-05-06T23:02:48.399Z,26.02
2019-05-06T23:05:17.940Z,23.30
2019-05-06T23:07:46.417Z,25.60
2019-05-06T23:10:14.932Z,23.15
2019-05-06T23:12:43.528Z,20.35
2019-05-06T23:15:12.480Z,20.65
2019-05-06T23:17:42.089Z,27.60
2019-05-06T23:20:11.379Z,21.75
2019-05-06T23:22:42.185Z,25.43
2019-05-06T23:25:12.377Z,26.70
2019-05-06T23:27:43.804Z,29.07
2019-05-06T23:30:12.783Z,28.35
2019-05-06T23:32:42.284Z,23.32
2019-05-06T23:35:13.127Z,20.40
2019-05-06T23:38:17.769Z,27.15
2019-05-06T23:41:22.983Z,29.12
2019-05-06T23:44:35.862Z,27.22
2019-05-06T23:47:35.248Z,22.98
2019-05-06T23:53:27.971Z,32.63
2019-05-06T23:56:34.686Z,30.70
2019-05-06T23:59:03.370Z,34.10
